createdAt,value
2022-12-22T00:02:27.838Z,66.77
2022-12-22T00:05:14.616Z,66.45
2022-12-22T00:08:00.972Z,66.42
2022-12-22T00:10:47.818Z,66.51
2022-12-22T00:13:34.982Z,66.02
2022-12-22T00:16:21.290Z,66.04
2022-12-22T00:19:07.484Z,67.07
2022-12-22T00:21:53.837Z,66.41
2022-12-22T00:24:40.331Z,65.82
2022-12-22T00:27:45.821Z,65.92
2022-12-22T00:30:33.172Z,67.96
2022-12-22T00:33:21.435Z,67.24
2022-12-22T00:36:08.457Z,66.40
2022-12-22T00:38:55.225Z,65.61
2022-12-22T00:41:41.498Z,65.52
2022-12-22T00:44:27.907Z,65.29
2022-12-22T00:47:14.235Z,66.45
2022-12-22T00:50:06.299Z,66.63
2022-12-22T00:52:53.689Z,66.78
2022-12-22T00:55:47.644Z,66.73
2022-12-22T00:58:37.599Z,66.27
2022-12-22T01:01:24.133Z,65.24
2022-12-22T01:04:10.460Z,66.06
2022-12-22T01:06:57.418Z,64.70
2022-12-22T01:09:43.857Z,65.21
2022-12-22T01:12:38.905Z,65.42
2022-12-22T01:15:32.320Z,65.28
2022-12-22T01:18:18.707Z,65.85
2022-12-22T01:21:05.009Z,65.44
2022-12-22T01:23:51.341Z,65.87
2022-12-22T01:26:37.919Z,66.39
2022-12-22T01:29:24.900Z,65.91
2022-12-22T01:32:11.196Z,66.25
2022-12-22T01:34:58.126Z,66.29
2022-12-22T01:37:44.598Z,66.58
2022-12-22T01:40:41.736Z,66.60
2022-12-22T01:43:45.965Z,66.89
2022-12-22T01:46:59.275Z,66.99
2022-12-22T01:49:59.893Z,68.15
2022-12-22T01:52:53.524Z,67.87
2022-12-22T01:55:43.019Z,67.92
2022-12-22T01:58:46.012Z,66.53
2022-12-22T02:01:32.993Z,65.88
2022-12-22T02:04:19.813Z,65.79
2022-12-22T02:07:10.332Z,65.94
2022-12-22T02:10:16.734Z,65.84
2022-12-22T02:13:08.671Z,65.76
2022-12-22T02:16:18.375Z,66.64
2022-12-22T02:19:16.260Z,66.12
2022-12-22T02:22:30.324Z,65.91
2022-12-22T02:25:28.459Z,66.62
2022-12-22T02:28:16.527Z,66.50
2022-12-22T02:31:03.859Z,66.55
2022-12-22T02:33:50.324Z,67.23
2022-12-22T02:36:42.395Z,66.74
2022-12-22T02:39:49.537Z,65.83
2022-12-22T02:42:50.735Z,66.40
2022-12-22T02:45:49.307Z,66.52
2022-12-22T02:48:42.892Z,65.70
2022-12-22T02:51:36.430Z,65.73
2022-12-22T02:54:24.807Z,65.17
2022-12-22T02:57:11.238Z,65.25
2022-12-22T02:59:58.184Z,67.64
2022-12-22T03:02:44.768Z,66.25
2022-12-22T03:05:31.163Z,66.78
2022-12-22T03:08:17.724Z,66.54
2022-12-22T03:11:03.619Z,66.22
2022-12-22T03:13:50.090Z,65.91
2022-12-22T03:16:36.492Z,66.65
2022-12-22T03:19:23.318Z,66.53
2022-12-22T03:22:09.789Z,66.67
2022-12-22T03:24:56.152Z,65.64
2022-12-22T03:27:23.694Z,66.81
2022-12-22T03:29:53.188Z,66.31
2022-12-22T03:32:20.864Z,65.51
2022-12-22T03:34:48.419Z,65.40
2022-12-22T03:37:16.290Z,65.24
2022-12-22T03:39:45.197Z,65.28
2022-12-22T03:42:31.238Z,65.71
2022-12-22T03:45:17.770Z,65.26
2022-12-22T03:47:45.328Z,65.19
2022-12-22T03:50:14.027Z,65.56
2022-12-22T03:52:41.731Z,65.39
2022-12-22T03:55:09.472Z,65.21
2022-12-22T03:57:37.333Z,65.55
2022-12-22T04:00:06.503Z,64.62
2022-12-22T04:02:39.678Z,64.68
2022-12-22T04:05:08.144Z,64.43
2022-12-22T04:07:35.884Z,64.36
2022-12-22T04:10:25.454Z,64.89
2022-12-22T04:12:56.841Z,64.87
2022-12-22T04:15:29.228Z,65.52
2022-12-22T04:17:58.674Z,64.64
2022-12-22T04:20:27.645Z,65.52
2022-12-22T04:22:56.567Z,67.25
2022-12-22T04:25:25.624Z,66.58
2022-12-22T04:27:53.542Z,66.77
2022-12-22T04:30:21.179Z,65.89
2022-12-22T04:32:49.051Z,65.90
2022-12-22T04:35:16.639Z,65.71
2022-12-22T04:37:44.570Z,65.80
2022-12-22T04:40:12.913Z,65.25
2022-12-22T04:42:40.571Z,65.28
2022-12-22T04:45:08.593Z,66.06
2022-12-22T04:47:36.488Z,65.69
2022-12-22T04:50:05.578Z,65.91
2022-12-22T04:52:33.135Z,65.72
2022-12-22T04:55:01.012Z,66.44
2022-12-22T04:57:28.641Z,66.57
2022-12-22T04:59:56.423Z,67.09
2022-12-22T05:02:24.393Z,66.89
2022-12-22T05:04:52.039Z,66.29
2022-12-22T05:07:20.765Z,66.59
2022-12-22T05:09:48.657Z,67.54
2022-12-22T05:12:34.986Z,67.13
2022-12-22T05:15:03.530Z,66.77
2022-12-22T05:17:31.700Z,67.27
2022-12-22T05:19:59.451Z,65.94
2022-12-22T05:22:27.401Z,66.02
2022-12-22T05:24:55.286Z,67.70
2022-12-22T05:27:22.963Z,67.06
2022-12-22T05:29:50.911Z,66.46
2022-12-22T05:32:18.485Z,66.73
2022-12-22T05:34:46.041Z,67.00
2022-12-22T05:37:13.952Z,67.07
2022-12-22T05:39:41.742Z,67.75
2022-12-22T05:42:09.323Z,68.73
2022-12-22T05:44:37.301Z,68.23
2022-12-22T05:47:04.913Z,68.03
2022-12-22T05:49:32.518Z,68.87
2022-12-22T05:52:00.356Z,69.17
2022-12-22T05:54:27.873Z,68.95
2022-12-22T05:56:55.494Z,68.87
2022-12-22T05:59:23.359Z,68.43
2022-12-22T06:01:50.911Z,68.74
2022-12-22T06:04:19.061Z,69.00
2022-12-22T06:06:46.647Z,68.63
2022-12-22T06:09:14.258Z,68.14
2022-12-22T06:11:42.174Z,69.07
2022-12-22T06:14:09.735Z,69.74
2022-12-22T06:16:37.378Z,69.57
2022-12-22T06:19:05.328Z,70.71
2022-12-22T06:21:33.028Z,69.63
2022-12-22T06:24:00.581Z,68.84
2022-12-22T06:26:28.583Z,69.05
2022-12-22T06:28:56.130Z,69.08
2022-12-22T06:31:24.442Z,69.39
2022-12-22T06:33:52.347Z,71.34
2022-12-22T06:36:19.918Z,70.65
2022-12-22T06:38:47.498Z,69.92
2022-12-22T06:41:15.376Z,70.56
2022-12-22T06:43:42.958Z,70.61
2022-12-22T06:46:10.514Z,70.42
2022-12-22T06:48:38.371Z,70.87
2022-12-22T06:51:06.138Z,70.79
2022-12-22T06:53:33.668Z,71.60
2022-12-22T06:56:01.567Z,72.62
2022-12-22T06:58:29.158Z,70.77
2022-12-22T07:00:56.998Z,71.74
2022-12-22T07:03:24.955Z,72.75
2022-12-22T07:05:52.809Z,72.49
2022-12-22T07:08:20.451Z,72.55
2022-12-22T07:11:00.374Z,72.30
2022-12-22T07:13:35.340Z,70.90
2022-12-22T07:16:05.824Z,71.03
2022-12-22T07:18:35.634Z,71.89
2022-12-22T07:21:06.610Z,72.56
2022-12-22T07:23:35.034Z,72.05
2022-12-22T07:26:03.717Z,71.86
2022-12-22T07:28:36.653Z,71.95
2022-12-22T07:31:05.557Z,72.42
2022-12-22T07:33:33.430Z,71.85
2022-12-22T07:36:05.112Z,72.69
2022-12-22T07:38:37.750Z,72.03
2022-12-22T07:41:25.567Z,71.74
2022-12-22T07:43:54.822Z,71.56
2022-12-22T07:46:23.019Z,71.32
2022-12-22T07:49:09.449Z,70.58
2022-12-22T07:51:40.871Z,71.02
2022-12-22T07:54:10.445Z,71.82
2022-12-22T07:56:39.886Z,71.06
2022-12-22T07:59:08.601Z,69.92
2022-12-22T08:01:36.481Z,70.28
2022-12-22T08:04:04.766Z,69.97
2022-12-22T08:06:36.052Z,69.40
2022-12-22T08:09:06.106Z,68.46
2022-12-22T08:11:34.313Z,68.31
2022-12-22T08:14:02.513Z,68.46
2022-12-22T08:16:30.639Z,68.10
2022-12-22T08:18:58.553Z,68.24
2022-12-22T08:21:26.305Z,68.11
2022-12-22T08:23:54.217Z,67.99
2022-12-22T08:26:27.782Z,67.71
2022-12-22T08:29:24.086Z,67.76
2022-12-22T08:31:51.816Z,68.11
2022-12-22T08:34:19.846Z,68.73
2022-12-22T08:36:55.382Z,69.44
2022-12-22T08:39:25.850Z,68.72
2022-12-22T08:41:54.326Z,68.45
2022-12-22T08:44:25.188Z,67.84
2022-12-22T08:46:55.039Z,67.91
2022-12-22T08:49:23.775Z,68.38
2022-12-22T08:51:52.346Z,69.12
2022-12-22T08:54:21.275Z,68.78
2022-12-22T08:56:49.799Z,68.46
2022-12-22T08:59:17.640Z,69.35
2022-12-22T09:01:50.364Z,69.32
2022-12-22T09:04:21.238Z,68.95
2022-12-22T09:06:52.180Z,68.25
2022-12-22T09:09:20.388Z,68.50
2022-12-22T09:11:48.368Z,68.66
2022-12-22T09:14:16.676Z,68.34
2022-12-22T09:16:44.443Z,68.86
2022-12-22T09:19:12.124Z,68.41
2022-12-22T09:21:40.163Z,69.54
2022-12-22T09:24:08.225Z,69.24
2022-12-22T09:26:36.190Z,70.67
2022-12-22T09:29:04.989Z,71.42
2022-12-22T09:31:32.913Z,70.45
2022-12-22T09:34:00.991Z,69.77
2022-12-22T09:36:31.426Z,71.69
2022-12-22T09:38:59.701Z,69.67
2022-12-22T09:41:35.230Z,69.52
2022-12-22T09:44:23.944Z,71.73
2022-12-22T09:46:54.202Z,71.58
2022-12-22T09:49:22.996Z,71.52
2022-12-22T09:51:54.534Z,71.69
2022-12-22T09:54:23.598Z,71.51
2022-12-22T09:56:51.383Z,70.06
2022-12-22T09:59:21.499Z,69.69
2022-12-22T10:02:18.360Z,69.88
2022-12-22T10:05:10.383Z,69.61
2022-12-22T10:07:41.103Z,70.41
2022-12-22T10:10:24.902Z,71.12
2022-12-22T10:12:55.356Z,70.19
2022-12-22T10:15:24.027Z,70.21
2022-12-22T10:17:54.373Z,70.52
2022-12-22T10:20:22.032Z,69.85
2022-12-22T10:22:59.571Z,69.45
2022-12-22T10:26:08.755Z,70.63
2022-12-22T10:28:33.366Z,70.27
2022-12-22T10:31:21.388Z,69.98
2022-12-22T10:33:53.041Z,70.24
2022-12-22T10:36:32.897Z,70.07
2022-12-22T10:39:05.346Z,70.42
2022-12-22T10:41:38.154Z,70.26
2022-12-22T10:44:19.020Z,71.17
2022-12-22T10:46:49.782Z,71.19
2022-12-22T10:49:25.453Z,70.25
2022-12-22T10:51:56.528Z,71.50
2022-12-22T10:54:26.494Z,70.52
2022-12-22T10:57:19.625Z,71.47
2022-12-22T11:00:03.150Z,70.77
2022-12-22T11:02:40.006Z,73.15
2022-12-22T11:05:10.875Z,72.01
2022-12-22T11:07:41.185Z,70.79
2022-12-22T11:10:15.124Z,70.87
2022-12-22T11:13:08.686Z,71.70
2022-12-22T11:15:36.512Z,71.40
2022-12-22T11:18:23.697Z,72.09
2022-12-22T11:21:32.973Z,73.36
2022-12-22T11:24:18.501Z,73.05
2022-12-22T11:26:54.720Z,71.90
2022-12-22T11:29:49.747Z,71.20
2022-12-22T11:32:30.086Z,71.38
2022-12-22T11:35:14.564Z,71.34
2022-12-22T11:37:56.681Z,70.27
2022-12-22T11:40:29.806Z,70.76
2022-12-22T11:43:20.932Z,71.30
2022-12-22T11:46:21.555Z,71.09
2022-12-22T11:48:55.522Z,71.72
2022-12-22T11:51:51.889Z,71.42
2022-12-22T11:54:31.790Z,70.54
2022-12-22T11:57:13.464Z,70.11
2022-12-22T12:01:03.745Z,69.42
2022-12-22T12:03:39.944Z,71.04
2022-12-22T12:06:51.275Z,71.67
2022-12-22T12:09:33.242Z,72.62
2022-12-22T12:12:17.374Z,71.67
2022-12-22T12:15:08.440Z,72.17
2022-12-22T12:18:04.844Z,71.20
2022-12-22T12:20:32.736Z,71.32
2022-12-22T12:23:03.594Z,72.51
2022-12-22T12:25:40.785Z,71.23
2022-12-22T12:28:27.124Z,71.19
2022-12-22T12:31:06.385Z,70.81
2022-12-22T12:33:46.832Z,70.99
2022-12-22T12:36:23.067Z,71.88
2022-12-22T12:39:10.136Z,70.98
2022-12-22T12:42:01.555Z,70.97
2022-12-22T12:44:34.817Z,70.82
2022-12-22T12:47:22.201Z,70.40
2022-12-22T12:49:53.475Z,70.00
2022-12-22T12:52:48.792Z,70.46
2022-12-22T12:55:32.757Z,69.66
2022-12-22T12:58:03.535Z,70.24
2022-12-22T13:00:34.570Z,70.78
2022-12-22T13:03:02.639Z,70.96
2022-12-22T13:05:52.107Z,71.23
2022-12-22T13:08:29.507Z,71.23
2022-12-22T13:10:56.985Z,69.59
2022-12-22T13:13:25.127Z,69.14
2022-12-22T13:16:01.974Z,69.23
2022-12-22T13:18:49.980Z,68.96
2022-12-22T13:24:29.535Z,69.27
2022-12-22T13:27:03.598Z,69.00
2022-12-22T13:29:42.012Z,69.02
2022-12-22T13:32:33.444Z,69.03
2022-12-22T13:37:55.224Z,69.32
2022-12-22T13:40:26.399Z,69.77
2022-12-22T13:43:04.532Z,69.48
2022-12-22T13:45:53.207Z,69.50
2022-12-22T13:48:20.728Z,70.39
2022-12-22T13:50:54.410Z,69.96
2022-12-22T13:54:07.616Z,70.77
2022-12-22T13:56:56.807Z,70.20
2022-12-22T13:59:34.666Z,70.17
2022-12-22T14:02:15.654Z,69.64
2022-12-22T14:05:03.953Z,70.43
2022-12-22T14:07:31.807Z,70.08
2022-12-22T14:09:59.988Z,71.09
2022-12-22T14:12:35.501Z,71.40
2022-12-22T14:15:07.840Z,70.86
2022-12-22T14:17:44.649Z,71.54
2022-12-22T14:20:21.221Z,72.52
2022-12-22T14:23:03.448Z,71.81
2022-12-22T14:25:37.530Z,71.51
2022-12-22T14:28:12.076Z,71.93
2022-12-22T14:30:45.139Z,72.41
2022-12-22T14:33:30.188Z,73.01
2022-12-22T14:36:05.132Z,72.34
2022-12-22T14:38:40.946Z,71.78
2022-12-22T14:41:37.503Z,71.28
2022-12-22T14:44:05.593Z,71.55
2022-12-22T14:46:38.660Z,71.93
2022-12-22T14:49:14.246Z,71.92
2022-12-22T14:51:42.606Z,70.79
2022-12-22T14:54:20.988Z,71.34
2022-12-22T14:56:54.349Z,71.27
2022-12-22T14:59:24.816Z,71.37
2022-12-22T15:02:02.135Z,71.03
2022-12-22T15:04:31.311Z,70.72
2022-12-22T15:07:08.017Z,70.31
2022-12-22T15:12:23.704Z,71.64
2022-12-22T15:14:51.310Z,70.67
2022-12-22T15:17:25.860Z,70.70
2022-12-22T15:19:58.726Z,70.76
2022-12-22T15:22:26.351Z,70.35
2022-12-22T15:24:54.189Z,70.50
2022-12-22T15:27:21.810Z,70.12
2022-12-22T15:29:52.088Z,70.93
2022-12-22T15:32:20.042Z,70.66
2022-12-22T15:34:48.062Z,70.63
2022-12-22T15:37:16.668Z,71.04
2022-12-22T15:39:47.442Z,71.36
2022-12-22T15:42:18.550Z,75.26
2022-12-22T15:44:46.626Z,73.94
2022-12-22T15:47:14.171Z,73.11
2022-12-22T15:49:42.085Z,71.58
2022-12-22T15:52:13.125Z,71.33
2022-12-22T15:54:40.831Z,71.46
2022-12-22T15:57:13.118Z,71.83
2022-12-22T15:59:41.598Z,73.99
2022-12-22T16:02:13.718Z,72.79
2022-12-22T16:04:41.999Z,73.40
2022-12-22T16:07:12.822Z,71.64
2022-12-22T16:09:42.064Z,73.23
2022-12-22T16:12:15.080Z,75.07
2022-12-22T16:14:50.255Z,74.56
2022-12-22T16:17:21.544Z,74.50
2022-12-22T16:19:50.151Z,74.86
2022-12-22T16:22:21.907Z,78.05
2022-12-22T16:24:50.968Z,80.21
2022-12-22T16:27:18.631Z,78.52
2022-12-22T16:29:51.675Z,76.98
2022-12-22T16:32:24.243Z,76.86
2022-12-22T16:34:52.858Z,77.18
2022-12-22T16:37:20.747Z,75.93
2022-12-22T16:39:49.848Z,76.93
2022-12-22T16:45:06.819Z,76.18
2022-12-22T16:47:36.232Z,76.69
2022-12-22T16:50:16.265Z,76.06
2022-12-22T16:52:44.280Z,75.60
2022-12-22T16:55:21.184Z,76.38
2022-12-22T16:57:49.121Z,76.78
2022-12-22T17:00:31.651Z,77.27
2022-12-22T17:03:10.840Z,77.31
2022-12-22T17:05:51.796Z,78.71
2022-12-22T17:08:24.729Z,81.73
2022-12-22T17:10:54.084Z,83.78
2022-12-22T17:13:22.406Z,82.91
2022-12-22T17:15:50.263Z,83.19
2022-12-22T17:18:23.649Z,85.28
2022-12-22T17:20:55.321Z,85.61
2022-12-22T17:23:31.609Z,85.37
2022-12-22T17:26:02.423Z,85.46
2022-12-22T17:28:30.148Z,85.14
2022-12-22T17:30:57.986Z,85.94
2022-12-22T17:33:25.984Z,84.76
2022-12-22T17:35:57.437Z,84.15
2022-12-22T17:38:27.209Z,82.60
2022-12-22T17:40:57.021Z,81.49
2022-12-22T17:43:24.725Z,81.38
2022-12-22T17:45:53.554Z,82.45
2022-12-22T17:48:21.430Z,80.92
2022-12-22T17:50:50.061Z,81.28
2022-12-22T17:53:20.093Z,80.49
2022-12-22T17:58:36.690Z,78.77
2022-12-22T18:01:04.785Z,78.45
2022-12-22T18:03:33.952Z,78.54
2022-12-22T18:06:01.688Z,79.28
2022-12-22T18:08:29.267Z,78.27
2022-12-22T18:10:57.209Z,76.95
2022-12-22T18:13:26.302Z,76.85
2022-12-22T18:15:55.947Z,76.65
2022-12-22T18:18:24.289Z,77.62
2022-12-22T18:21:06.369Z,77.34
2022-12-22T18:23:37.305Z,77.96
2022-12-22T18:26:08.455Z,78.82
2022-12-22T18:28:36.840Z,78.45
2022-12-22T18:31:04.639Z,77.29
2022-12-22T18:33:32.535Z,76.38
2022-12-22T18:36:00.812Z,75.82
2022-12-22T18:38:32.661Z,76.53
2022-12-22T18:41:00.868Z,76.30
2022-12-22T18:43:28.464Z,77.01
2022-12-22T18:45:56.182Z,74.56
2022-12-22T18:48:24.525Z,73.35
2022-12-22T18:50:52.176Z,73.92
2022-12-22T18:53:28.084Z,74.02
2022-12-22T18:55:56.651Z,73.16
2022-12-22T18:58:25.022Z,73.98
2022-12-22T19:00:54.472Z,75.24
2022-12-22T19:03:25.487Z,74.74
2022-12-22T19:05:53.507Z,73.52
2022-12-22T19:08:23.775Z,73.15
2022-12-22T19:10:57.273Z,74.65
2022-12-22T19:13:32.204Z,75.84
2022-12-22T19:16:01.254Z,75.98
2022-12-22T19:18:30.174Z,75.97
2022-12-22T19:20:58.080Z,76.95
2022-12-22T19:23:26.531Z,75.35
2022-12-22T19:26:02.181Z,75.22
2022-12-22T19:28:35.134Z,75.44
2022-12-22T19:31:06.178Z,75.51
2022-12-22T19:33:41.858Z,75.91
2022-12-22T19:36:17.457Z,78.05
2022-12-22T19:38:50.297Z,78.29
2022-12-22T19:41:40.239Z,76.79
2022-12-22T19:44:18.223Z,75.48
2022-12-22T19:46:46.847Z,77.41
2022-12-22T19:49:20.715Z,75.43
2022-12-22T19:51:48.973Z,75.10
2022-12-22T19:54:17.569Z,76.54
2022-12-22T19:56:52.441Z,75.29
2022-12-22T19:59:40.213Z,76.12
2022-12-22T20:02:27.647Z,75.73
2022-12-22T20:04:57.116Z,76.82
2022-12-22T20:07:26.858Z,77.34
2022-12-22T20:09:54.701Z,76.18
2022-12-22T20:12:31.873Z,75.37
2022-12-22T20:14:59.561Z,76.68
2022-12-22T20:17:27.819Z,76.80
2022-12-22T20:19:56.578Z,77.25
2022-12-22T20:22:24.261Z,75.81
2022-12-22T20:24:54.500Z,75.85
2022-12-22T20:27:27.132Z,76.99
2022-12-22T20:29:58.175Z,76.78
2022-12-22T20:32:28.273Z,76.63
2022-12-22T20:34:56.512Z,78.29
2022-12-22T20:37:29.097Z,77.18
2022-12-22T20:40:01.282Z,79.48
2022-12-22T20:42:29.237Z,77.50
2022-12-22T20:45:04.108Z,77.43
2022-12-22T20:47:33.731Z,77.74
2022-12-22T20:50:18.848Z,80.14
2022-12-22T20:52:46.783Z,79.10
2022-12-22T20:55:19.250Z,80.08
2022-12-22T20:57:48.451Z,80.31
2022-12-22T21:00:24.520Z,80.74
2022-12-22T21:02:53.166Z,80.11
2022-12-22T21:05:21.946Z,79.44
2022-12-22T21:07:49.674Z,77.93
2022-12-22T21:10:21.055Z,78.25
2022-12-22T21:12:49.556Z,76.68
2022-12-22T21:15:22.902Z,77.84
2022-12-22T21:17:58.176Z,76.24
2022-12-22T21:20:29.053Z,77.49
2022-12-22T21:22:56.931Z,75.90
2022-12-22T21:25:25.148Z,75.69
2022-12-22T21:27:53.300Z,76.68
2022-12-22T21:30:27.946Z,75.82
2022-12-22T21:32:56.639Z,76.72
2022-12-22T21:35:27.751Z,76.13
2022-12-22T21:37:57.821Z,76.33
2022-12-22T21:40:31.133Z,75.55
2022-12-22T21:42:59.353Z,75.39
2022-12-22T21:45:31.722Z,75.98
2022-12-22T21:48:01.252Z,76.04
2022-12-22T21:50:31.916Z,75.35
2022-12-22T21:52:59.897Z,75.50
2022-12-22T21:55:27.353Z,76.42
2022-12-22T21:57:55.832Z,76.48
2022-12-22T22:00:25.049Z,76.54
2022-12-22T22:02:53.838Z,77.33
2022-12-22T22:05:34.971Z,78.46
2022-12-22T22:08:12.711Z,78.13
2022-12-22T22:10:42.537Z,78.89
2022-12-22T22:13:15.246Z,78.17
2022-12-22T22:15:43.274Z,77.35
2022-12-22T22:18:16.572Z,79.50
2022-12-22T22:20:44.472Z,78.04
2022-12-22T22:23:14.131Z,78.35
2022-12-22T22:25:41.731Z,80.94
2022-12-22T22:28:11.463Z,79.36
2022-12-22T22:30:41.997Z,79.48
2022-12-22T22:33:10.594Z,80.67
2022-12-22T22:35:39.971Z,82.05
2022-12-22T22:38:12.491Z,80.74
2022-12-22T22:40:43.356Z,81.07
2022-12-22T22:43:11.903Z,80.48
2022-12-22T22:45:41.017Z,80.52
2022-12-22T22:48:18.941Z,80.60
2022-12-22T22:50:47.008Z,79.28
2022-12-22T22:53:14.790Z,81.82
2022-12-22T22:55:42.540Z,84.67
2022-12-22T22:58:11.563Z,81.78
2022-12-22T23:00:39.569Z,81.58
2022-12-22T23:03:07.345Z,81.51
2022-12-22T23:05:35.397Z,81.12
2022-12-22T23:08:03.143Z,80.91
2022-12-22T23:10:34.782Z,81.71
2022-12-22T23:13:05.821Z,81.63
2022-12-22T23:15:33.350Z,81.31
2022-12-22T23:18:01.118Z,83.29
2022-12-22T23:20:29.719Z,83.58
2022-12-22T23:22:57.251Z,82.95
2022-12-22T23:25:24.831Z,81.48
2022-12-22T23:27:52.790Z,83.25
2022-12-22T23:30:20.515Z,81.75
2022-12-22T23:32:48.080Z,82.10
2022-12-22T23:35:16.013Z,83.26
2022-12-22T23:37:43.589Z,85.15
2022-12-22T23:40:50.028Z,83.62
2022-12-22T23:43:00.222Z,84.03
2022-12-22T23:45:29.408Z,84.23
2022-12-22T23:47:57.244Z,85.77
2022-12-22T23:50:25.980Z,82.92
2022-12-22T23:52:54.227Z,83.42
2022-12-22T23:55:22.530Z,83.33
2022-12-22T23:57:52.112Z,82.98
